Mestre Joao Rico — CURN — position and weather

sailwx.info

Track history (hours):
 
Tides and Currents Weather Stations Pressure Air Temp Water Temp Dewpoint Dewpoint Depression Visibility Wind Speed Wind Dir Waves Ship Positions

Mestre Joao Rico

Last reported at 2018-Jul-19 20:28 UTC. Time now 2018-Jul-20 04:45 UTC.
Position N 36°45' W 008°05'.

Length 24 m.

Type: Fishing. MMSI: 263462000.

Date/timePositionNaut miles runAvg speedWind from/ knotsBaromVisibWave heightAir tempDewpointWater temp
2018-Jul-19 20:28N 36°45' W 008°05'5 9.4
2018-Jul-19 19:59N 36°49' W 008°08'0 0.7
2018-Jul-19 19:30N 36°49' W 008°09'2 2.6
2018-Jul-19 18:46N 36°49' W 008°11'1 2.6
2018-Jul-19 18:26N 36°49' W 008°12'1 2.8
2018-Jul-19 17:57N 36°49' W 008°14'1 2.7
2018-Jul-19 17:30N 36°49' W 008°15'3 0.5
2018-Jul-19 12:17N 36°49' W 008°12'14 0.4
2018-Jul-18 03:52N 36°50' W 008°29'3 5.0
2018-Jul-18 03:16N 36°51' W 008°32'3 2.0
2018-Jul-18 01:51N 36°48' W 008°31'13 2.2
2018-Jul-17 19:57N 36°46' W 008°15'1 2.5
2018-Jul-17 19:30N 36°47' W 008°14'1 2.5
2018-Jul-17 19:00N 36°47' W 008°12'1 2.6
2018-Jul-17 18:30N 36°47' W 008°11'2 3.8
2018-Jul-17 17:58N 36°47' W 008°08'3 5.1
2018-Jul-17 17:22N 36°48' W 008°04'2 0.2
2018-Jul-17 08:36N 36°49' W 008°06'0 0.2
2018-Jul-17 08:30N 36°49' W 008°06'2 2.8
2018-Jul-17 07:46N 36°50' W 008°03'  
2018-Jul-09 23:44N 36°46' W 008°43'1 2.8
2018-Jul-09 23:29N 36°46' W 008°44'1 2.8
2018-Jul-09 23:00N 36°46' W 008°45'  
Track history (hours):
 
Tides and Currents Weather Stations Pressure Air Temp Water Temp Dewpoint Dewpoint Depression Visibility Wind Speed Wind Dir Waves Ship Positions

Mestre Joao Rico

Last reported at 2018-Jul-19 20:28 UTC. Time now 2018-Jul-20 04:45 UTC.
Position N 36°45' W 008°05'.

Length 24 m.

Type: Fishing. MMSI: 263462000.

Date/timePositionNaut miles runAvg speedWind from/ knotsBaromVisibWave heightAir tempDewpointWater temp
2018-Jul-19 20:28N 36°45' W 008°05'5 9.4
2018-Jul-19 19:59N 36°49' W 008°08'0 0.7
2018-Jul-19 19:30N 36°49' W 008°09'2 2.6
2018-Jul-19 18:46N 36°49' W 008°11'1 2.6
2018-Jul-19 18:26N 36°49' W 008°12'1 2.8
2018-Jul-19 17:57N 36°49' W 008°14'1 2.7
2018-Jul-19 17:30N 36°49' W 008°15'3 0.5
2018-Jul-19 12:17N 36°49' W 008°12'14 0.4
2018-Jul-18 03:52N 36°50' W 008°29'3 5.0
2018-Jul-18 03:16N 36°51' W 008°32'3 2.0
2018-Jul-18 01:51N 36°48' W 008°31'13 2.2
2018-Jul-17 19:57N 36°46' W 008°15'1 2.5
2018-Jul-17 19:30N 36°47' W 008°14'1 2.5
2018-Jul-17 19:00N 36°47' W 008°12'1 2.6
2018-Jul-17 18:30N 36°47' W 008°11'2 3.8
2018-Jul-17 17:58N 36°47' W 008°08'3 5.1
2018-Jul-17 17:22N 36°48' W 008°04'2 0.2
2018-Jul-17 08:36N 36°49' W 008°06'0 0.2
2018-Jul-17 08:30N 36°49' W 008°06'2 2.8
2018-Jul-17 07:46N 36°50' W 008°03'  
2018-Jul-09 23:44N 36°46' W 008°43'1 2.8
2018-Jul-09 23:29N 36°46' W 008°44'1 2.8
2018-Jul-09 23:00N 36°46' W 008°45'  

Dump ship's entire track history